createdAt,value
2022-10-19T00:00:33.187Z,6.40
2022-10-19T00:02:59.723Z,6.03
2022-10-19T00:05:26.490Z,6.47
2022-10-19T00:07:53.701Z,6.20
2022-10-19T00:10:20.407Z,6.30
2022-10-19T00:15:13.742Z,5.33
2022-10-19T00:17:40.253Z,4.80
2022-10-19T00:20:06.988Z,4.70
2022-10-19T00:22:33.661Z,4.60
2022-10-19T00:25:00.274Z,4.87
2022-10-19T00:27:26.759Z,4.70
2022-10-19T00:29:53.234Z,4.67
2022-10-19T00:32:19.710Z,4.40
2022-10-19T00:34:46.162Z,4.00
2022-10-19T00:37:12.629Z,4.37
2022-10-19T00:39:39.307Z,3.80
2022-10-19T00:42:05.822Z,4.30
2022-10-19T00:44:32.169Z,4.30
2022-10-19T00:47:01.872Z,4.10
2022-10-19T00:49:32.195Z,4.55
2022-10-19T00:52:04.117Z,4.00
2022-10-19T00:54:32.718Z,4.00
2022-10-19T00:56:59.922Z,3.97
2022-10-19T00:59:27.242Z,3.90
2022-10-19T01:01:54.469Z,3.93
2022-10-19T01:04:22.203Z,4.00
2022-10-19T01:06:48.756Z,3.80
2022-10-19T01:09:15.337Z,4.22
2022-10-19T01:11:58.220Z,4.00
2022-10-19T01:14:43.582Z,4.03
2022-10-19T01:17:43.914Z,4.20
2022-10-19T01:20:19.368Z,4.13
2022-10-19T01:23:16.595Z,4.33
2022-10-19T01:26:01.212Z,4.47
2022-10-19T01:28:54.568Z,4.43
2022-10-19T01:31:30.424Z,4.28
2022-10-19T01:34:10.141Z,4.97
2022-10-19T01:36:57.865Z,4.60
2022-10-19T01:39:54.986Z,4.70
2022-10-19T01:42:46.705Z,4.35
2022-10-19T01:45:19.717Z,4.28
2022-10-19T01:47:49.778Z,4.25
2022-10-19T01:52:43.875Z,4.25
2022-10-19T01:55:13.187Z,4.03
2022-10-19T01:57:43.042Z,4.07
2022-10-19T02:00:11.133Z,4.40
2022-10-19T02:02:39.374Z,4.20
2022-10-19T02:05:07.778Z,4.18
2022-10-19T02:07:34.992Z,4.22
2022-10-19T02:10:01.623Z,4.57
2022-10-19T02:12:28.965Z,4.00
2022-10-19T02:14:58.576Z,4.20
2022-10-19T02:17:28.794Z,3.95
2022-10-19T02:19:59.134Z,3.80
2022-10-19T02:22:25.674Z,4.50
2022-10-19T02:24:52.139Z,3.75
2022-10-19T02:27:19.277Z,4.28
2022-10-19T02:29:46.099Z,4.57
2022-10-19T02:32:12.716Z,4.47
2022-10-19T02:34:39.575Z,3.65
2022-10-19T02:37:06.425Z,4.28
2022-10-19T02:39:33.275Z,3.75
2022-10-19T02:42:08.823Z,3.90
2022-10-19T02:44:48.203Z,4.47
2022-10-19T02:47:21.078Z,4.38
2022-10-19T02:49:47.818Z,4.28
2022-10-19T02:52:14.738Z,4.07
2022-10-19T02:54:43.696Z,4.30
2022-10-19T02:57:19.325Z,4.13
2022-10-19T02:59:46.122Z,4.35
2022-10-19T03:02:13.526Z,3.90
2022-10-19T03:04:40.275Z,4.40
2022-10-19T03:07:06.720Z,4.80
2022-10-19T03:09:33.147Z,4.47
2022-10-19T03:11:59.573Z,4.05
2022-10-19T03:14:26.094Z,4.28
2022-10-19T03:16:52.523Z,3.92
2022-10-19T03:19:19.088Z,4.32
2022-10-19T03:21:45.948Z,4.30
2022-10-19T03:24:12.718Z,4.45
2022-10-19T03:26:39.221Z,4.35
2022-10-19T03:29:05.731Z,3.88
2022-10-19T03:31:32.366Z,4.50
2022-10-19T03:33:58.885Z,4.10
2022-10-19T03:36:26.420Z,4.25
2022-10-19T03:38:57.839Z,4.32
2022-10-19T03:41:26.817Z,4.32
2022-10-19T03:43:53.385Z,4.00
2022-10-19T03:46:20.999Z,4.07
2022-10-19T03:48:48.137Z,3.88
2022-10-19T03:51:20.050Z,4.05
2022-10-19T03:53:46.896Z,3.77
2022-10-19T03:56:18.809Z,4.15
2022-10-19T03:58:47.072Z,4.80
2022-10-19T04:01:21.803Z,4.60
2022-10-19T04:04:01.118Z,4.32
2022-10-19T04:06:31.624Z,4.20
2022-10-19T04:08:58.736Z,4.43
2022-10-19T04:11:27.607Z,4.10
2022-10-19T04:14:26.736Z,4.10
2022-10-19T04:17:03.598Z,3.72
2022-10-19T04:19:30.564Z,3.63
2022-10-19T04:21:57.518Z,4.43
2022-10-19T04:24:23.968Z,4.25
2022-10-19T04:26:52.839Z,3.90
2022-10-19T04:29:22.835Z,3.65
2022-10-19T04:31:53.529Z,3.78
2022-10-19T04:34:19.990Z,3.67
2022-10-19T04:36:46.454Z,4.03
2022-10-19T04:39:24.669Z,3.67
2022-10-19T04:41:51.136Z,4.00
2022-10-19T04:44:17.700Z,3.75
2022-10-19T04:46:44.185Z,4.82
2022-10-19T04:49:10.697Z,4.15
2022-10-19T04:51:37.150Z,4.13
2022-10-19T04:54:07.043Z,3.92
2022-10-19T04:56:34.176Z,4.13
2022-10-19T04:59:03.583Z,4.13
2022-10-19T05:01:31.627Z,4.32
2022-10-19T05:04:00.732Z,3.90
2022-10-19T05:06:27.764Z,3.67
2022-10-19T05:08:55.036Z,3.78
2022-10-19T05:11:22.332Z,4.50
2022-10-19T05:13:49.171Z,4.10
2022-10-19T05:16:18.125Z,4.35
2022-10-19T05:18:49.147Z,5.05
2022-10-19T05:21:16.527Z,5.10
2022-10-19T05:23:43.344Z,5.25
2022-10-19T05:26:15.635Z,4.07
2022-10-19T05:28:42.627Z,4.18
2022-10-19T05:31:11.724Z,4.15
2022-10-19T05:33:39.441Z,4.07
2022-10-19T05:36:13.486Z,4.47
2022-10-19T05:38:40.069Z,4.22
2022-10-19T05:41:06.855Z,4.95
2022-10-19T05:43:33.486Z,5.65
2022-10-19T05:46:08.612Z,5.07
2022-10-19T05:48:37.062Z,5.20
2022-10-19T05:51:05.451Z,4.78
2022-10-19T05:53:33.685Z,4.97
2022-10-19T05:56:00.232Z,5.30
2022-10-19T05:58:26.930Z,5.03
2022-10-19T06:00:58.358Z,4.72
2022-10-19T06:03:25.588Z,5.38
2022-10-19T06:05:53.009Z,5.10
2022-10-19T06:08:20.701Z,4.55
2022-10-19T06:10:47.904Z,5.13
2022-10-19T06:13:15.720Z,5.80
2022-10-19T06:15:42.289Z,5.53
2022-10-19T06:18:10.576Z,5.63
2022-10-19T06:20:38.890Z,5.72
2022-10-19T06:23:06.038Z,4.88
2022-10-19T06:25:33.096Z,5.82
2022-10-19T06:28:00.440Z,5.43
2022-10-19T06:30:27.205Z,5.57
2022-10-19T06:32:54.011Z,5.07
2022-10-19T06:35:20.807Z,4.90
2022-10-19T06:37:51.298Z,4.90
2022-10-19T06:40:18.019Z,5.10
2022-10-19T06:42:44.557Z,4.82
2022-10-19T06:45:11.138Z,5.40
2022-10-19T06:47:38.104Z,5.00
2022-10-19T06:50:06.253Z,5.22
2022-10-19T06:52:33.840Z,4.72
2022-10-19T06:55:01.295Z,5.00
2022-10-19T06:57:28.433Z,4.85
2022-10-19T06:59:55.187Z,4.45
2022-10-19T07:02:21.778Z,4.90
2022-10-19T07:04:48.311Z,4.50
2022-10-19T07:07:14.930Z,5.18
2022-10-19T07:09:41.549Z,5.35
2022-10-19T07:12:08.432Z,4.70
2022-10-19T07:14:35.388Z,4.78
2022-10-19T07:17:01.878Z,5.68
2022-10-19T07:19:28.408Z,5.93
2022-10-19T07:21:54.851Z,5.35
2022-10-19T07:24:21.656Z,5.47
2022-10-19T07:26:48.282Z,5.90
2022-10-19T07:29:14.800Z,5.27
2022-10-19T07:31:41.980Z,5.50
2022-10-19T07:34:12.049Z,5.57
2022-10-19T07:36:38.644Z,5.82
2022-10-19T07:39:06.714Z,5.70
2022-10-19T07:41:33.857Z,5.93
2022-10-19T07:44:01.280Z,6.87
2022-10-19T07:46:29.146Z,7.20
2022-10-19T07:48:55.832Z,7.17
2022-10-19T07:51:23.176Z,6.97
2022-10-19T07:53:50.433Z,6.50
2022-10-19T07:56:22.497Z,6.93
2022-10-19T07:58:53.560Z,7.20
2022-10-19T08:01:24.027Z,6.63
2022-10-19T08:06:39.242Z,7.13
2022-10-19T08:09:06.810Z,6.57
2022-10-19T08:11:35.496Z,6.13
2022-10-19T08:14:02.476Z,6.23
2022-10-19T08:16:30.424Z,7.47
2022-10-19T08:19:00.458Z,6.73
2022-10-19T08:23:53.819Z,6.53
2022-10-19T08:26:20.875Z,6.93
2022-10-19T08:28:47.622Z,6.93
2022-10-19T08:31:20.066Z,6.57
2022-10-19T08:33:46.970Z,7.37
2022-10-19T08:36:13.704Z,7.93
2022-10-19T08:38:40.884Z,6.70
2022-10-19T08:41:46.196Z,7.10
2022-10-19T08:44:15.413Z,7.50
2022-10-19T08:47:08.288Z,7.05
2022-10-19T08:49:35.629Z,7.60
2022-10-19T08:52:08.026Z,7.20
2022-10-19T08:54:49.283Z,7.37
2022-10-19T08:57:28.364Z,7.87
2022-10-19T09:00:17.308Z,8.10
2022-10-19T09:03:03.417Z,8.00
2022-10-19T09:05:45.437Z,8.23
2022-10-19T09:08:17.473Z,8.83
2022-10-19T09:10:46.999Z,8.70
2022-10-19T09:13:23.252Z,8.63
2022-10-19T09:15:51.513Z,9.27
2022-10-19T09:18:29.749Z,9.17
2022-10-19T09:21:17.145Z,9.20
2022-10-19T09:23:47.222Z,9.20
2022-10-19T09:26:19.016Z,9.83
2022-10-19T09:28:54.858Z,10.40
2022-10-19T09:31:40.693Z,8.87
2022-10-19T09:34:22.071Z,8.80
2022-10-19T09:36:56.515Z,8.27
2022-10-19T09:39:27.036Z,9.07
2022-10-19T09:41:58.967Z,9.17
2022-10-19T09:44:27.058Z,8.68
2022-10-19T09:47:10.213Z,8.57
2022-10-19T09:49:45.050Z,11.30
2022-10-19T09:52:32.987Z,8.23
2022-10-19T09:55:06.469Z,8.07
2022-10-19T09:57:34.053Z,9.17
2022-10-19T10:00:00.820Z,8.13
2022-10-19T10:02:32.203Z,7.97
2022-10-19T10:05:14.673Z,9.40
2022-10-19T10:07:41.208Z,8.00
2022-10-19T10:10:19.927Z,9.03
2022-10-19T10:12:47.187Z,8.37
2022-10-19T10:15:19.932Z,8.60
2022-10-19T10:17:47.839Z,9.37
2022-10-19T10:20:25.457Z,8.50
2022-10-19T10:22:58.027Z,8.83
2022-10-19T10:25:27.433Z,8.80
2022-10-19T10:28:03.797Z,9.40
2022-10-19T10:30:35.439Z,8.77
2022-10-19T10:33:09.440Z,8.17
2022-10-19T10:35:47.223Z,8.20
2022-10-19T10:38:18.420Z,8.07
2022-10-19T10:41:00.672Z,7.50
2022-10-19T10:43:31.585Z,9.23
2022-10-19T10:46:07.484Z,10.53
2022-10-19T10:48:44.576Z,9.50
2022-10-19T10:51:43.444Z,9.20
2022-10-19T10:54:23.098Z,10.50
2022-10-19T10:57:07.933Z,10.63
2022-10-19T11:00:01.751Z,10.10
2022-10-19T11:02:36.838Z,9.30
2022-10-19T11:05:12.002Z,8.37
2022-10-19T11:07:43.924Z,11.37
2022-10-19T11:10:20.441Z,9.37
2022-10-19T11:12:52.062Z,10.60
2022-10-19T11:15:59.580Z,9.80
2022-10-19T11:18:30.067Z,9.53
2022-10-19T11:21:18.515Z,10.50
2022-10-19T11:23:47.729Z,11.53
2022-10-19T11:26:26.474Z,10.75
2022-10-19T11:29:02.681Z,10.97
2022-10-19T11:31:43.902Z,10.03
2022-10-19T11:34:29.248Z,11.87
2022-10-19T11:37:26.653Z,10.13
2022-10-19T11:40:08.864Z,10.90
2022-10-19T11:45:25.650Z,9.93
2022-10-19T11:48:15.024Z,10.00
2022-10-19T11:51:04.136Z,10.05
2022-10-19T11:54:21.433Z,13.27
2022-10-19T11:57:09.382Z,10.00
2022-10-19T12:02:26.110Z,8.35
2022-10-19T12:05:00.421Z,8.77
2022-10-19T12:07:48.611Z,8.00
2022-10-19T12:10:32.525Z,8.87
2022-10-19T12:13:02.364Z,7.73
2022-10-19T12:17:59.558Z,7.43
2022-10-19T12:20:31.255Z,7.60
2022-10-19T12:22:58.905Z,7.30
2022-10-19T12:25:26.446Z,6.60
2022-10-19T12:27:53.444Z,6.43
2022-10-19T12:30:22.168Z,6.83
2022-10-19T12:33:15.457Z,7.13
2022-10-19T12:36:32.758Z,6.60
2022-10-19T12:39:01.624Z,6.20
2022-10-19T12:42:05.416Z,6.22
2022-10-19T12:44:45.195Z,5.97
2022-10-19T12:49:46.261Z,5.27
2022-10-19T12:52:14.420Z,6.00
2022-10-19T12:54:42.635Z,5.70
2022-10-19T12:57:29.059Z,5.50
2022-10-19T13:00:06.308Z,5.43
2022-10-19T13:02:35.485Z,5.40
2022-10-19T13:05:02.549Z,4.72
2022-10-19T13:07:32.809Z,5.43
2022-10-19T13:10:05.777Z,5.67
2022-10-19T13:12:44.002Z,6.13
2022-10-19T13:15:33.494Z,6.43
2022-10-19T13:18:01.370Z,6.32
2022-10-19T13:20:27.766Z,7.97
2022-10-19T13:23:00.123Z,8.07
2022-10-19T13:25:27.329Z,8.30
2022-10-19T13:27:54.836Z,8.37
2022-10-19T13:30:36.455Z,8.57
2022-10-19T13:33:28.004Z,8.33
2022-10-19T13:36:00.582Z,9.53
2022-10-19T13:38:32.792Z,8.80
2022-10-19T13:41:12.096Z,7.90
2022-10-19T13:43:41.638Z,7.97
2022-10-19T13:46:12.480Z,7.85
2022-10-19T13:49:16.658Z,8.80
2022-10-19T13:52:13.910Z,9.10
2022-10-19T13:54:55.350Z,8.70
2022-10-19T13:57:44.596Z,9.17
2022-10-19T14:00:15.647Z,8.43
2022-10-19T14:02:50.966Z,8.70
2022-10-19T14:05:39.091Z,7.70
2022-10-19T14:08:17.529Z,8.10
2022-10-19T14:11:00.729Z,8.63
2022-10-19T14:13:28.485Z,9.43
2022-10-19T14:15:57.614Z,9.00
2022-10-19T14:18:30.982Z,8.52
2022-10-19T14:20:58.397Z,8.23
2022-10-19T14:23:30.084Z,9.07
2022-10-19T14:26:20.514Z,8.93
2022-10-19T14:28:51.884Z,8.40
2022-10-19T14:31:22.167Z,8.97
2022-10-19T14:33:51.538Z,9.00
2022-10-19T14:36:21.593Z,8.93
2022-10-19T14:38:54.954Z,8.73
2022-10-19T14:41:27.357Z,10.10
2022-10-19T14:43:55.256Z,11.60
2022-10-19T14:46:28.850Z,12.33
2022-10-19T14:49:00.092Z,11.30
2022-10-19T14:51:45.593Z,13.53
2022-10-19T14:54:28.721Z,13.97
2022-10-19T14:56:57.088Z,13.67
2022-10-19T14:59:32.328Z,14.47
2022-10-19T15:02:01.058Z,14.47
2022-10-19T15:04:37.729Z,14.30
2022-10-19T15:07:15.325Z,14.73
2022-10-19T15:09:48.663Z,16.80
2022-10-19T15:12:18.422Z,16.70
2022-10-19T15:14:45.999Z,17.55
2022-10-19T15:17:21.654Z,16.47
2022-10-19T15:19:48.428Z,17.70
2022-10-19T15:22:21.382Z,19.60
2022-10-19T15:25:00.696Z,20.10
2022-10-19T15:27:41.226Z,19.73
2022-10-19T15:30:22.858Z,21.10
2022-10-19T15:32:52.449Z,20.27
2022-10-19T15:35:34.965Z,21.08
2022-10-19T15:38:07.537Z,20.00
2022-10-19T15:40:38.576Z,20.77
2022-10-19T15:43:50.737Z,20.83
2022-10-19T15:46:27.311Z,19.00
2022-10-19T15:49:24.134Z,21.47
2022-10-19T15:51:51.027Z,21.47
2022-10-19T15:54:18.551Z,21.77
2022-10-19T15:56:47.159Z,21.63
2022-10-19T15:59:16.434Z,22.17
2022-10-19T16:01:44.096Z,20.52
2022-10-19T16:04:10.876Z,19.87
2022-10-19T16:06:40.257Z,19.93
2022-10-19T16:09:08.703Z,22.50
2022-10-19T16:11:35.340Z,21.47
2022-10-19T16:14:02.513Z,20.13
2022-10-19T16:16:31.803Z,20.27
2022-10-19T16:18:59.097Z,21.52
2022-10-19T16:21:33.344Z,21.57
2022-10-19T16:24:00.247Z,22.63
2022-10-19T16:26:27.023Z,24.67
2022-10-19T16:28:55.397Z,25.20
2022-10-19T16:31:23.041Z,23.77
2022-10-19T16:33:49.603Z,27.17
2022-10-19T16:36:16.356Z,28.27
2022-10-19T16:38:42.865Z,28.93
2022-10-19T16:41:10.644Z,29.57
2022-10-19T16:43:37.989Z,29.43
2022-10-19T16:46:06.010Z,30.67
2022-10-19T16:48:33.230Z,30.60
2022-10-19T16:51:24.344Z,27.93
2022-10-19T16:53:53.730Z,29.57
2022-10-19T16:56:20.594Z,34.25
2022-10-19T16:58:47.234Z,35.40
2022-10-19T17:01:16.584Z,36.60
2022-10-19T17:03:44.127Z,33.17
2022-10-19T17:06:10.750Z,33.43
2022-10-19T17:09:14.317Z,28.53
2022-10-19T17:11:28.035Z,36.40
2022-10-19T17:13:57.521Z,38.97
2022-10-19T17:16:25.954Z,32.75
2022-10-19T17:18:55.423Z,35.30
2022-10-19T17:21:27.130Z,39.65
2022-10-19T17:23:55.856Z,36.57
2022-10-19T17:26:30.981Z,40.90
2022-10-19T17:28:58.474Z,39.93
2022-10-19T17:31:25.537Z,43.10
2022-10-19T17:33:52.586Z,39.97
2022-10-19T17:36:24.396Z,41.03
2022-10-19T17:38:53.454Z,36.00
2022-10-19T17:41:20.124Z,32.05
2022-10-19T17:43:48.106Z,41.20
2022-10-19T17:46:16.647Z,31.93
2022-10-19T17:48:44.210Z,35.43
2022-10-19T17:51:19.442Z,29.23
2022-10-19T17:53:49.762Z,31.23
2022-10-19T17:56:18.976Z,31.43
2022-10-19T17:58:45.600Z,26.50
2022-10-19T18:01:12.441Z,21.87
2022-10-19T18:03:39.741Z,18.57
2022-10-19T18:06:10.710Z,18.20
2022-10-19T18:08:40.036Z,17.77
2022-10-19T18:11:09.366Z,18.17
2022-10-19T18:16:16.131Z,15.87
2022-10-19T18:18:44.572Z,15.23
2022-10-19T18:21:12.985Z,17.67
2022-10-19T18:23:40.198Z,20.37
2022-10-19T18:26:15.276Z,20.20
2022-10-19T18:28:42.669Z,18.30
2022-10-19T18:31:12.126Z,19.17
2022-10-19T18:33:39.041Z,18.25
2022-10-19T18:36:07.664Z,17.93
2022-10-19T18:38:34.988Z,18.77
2022-10-19T18:41:09.663Z,18.93
2022-10-19T18:43:36.542Z,17.43
2022-10-19T18:46:03.227Z,18.03
2022-10-19T18:48:30.547Z,18.70
2022-10-19T18:50:57.754Z,19.17
2022-10-19T18:53:24.499Z,17.23
2022-10-19T18:56:01.540Z,19.07
2022-10-19T18:58:30.775Z,18.30
2022-10-19T19:01:05.819Z,24.33
2022-10-19T19:03:33.111Z,22.07
2022-10-19T19:06:07.538Z,20.27
2022-10-19T19:08:34.135Z,19.33
2022-10-19T19:11:15.883Z,16.43
2022-10-19T19:13:50.653Z,18.23
2022-10-19T19:16:17.545Z,14.90
2022-10-19T19:18:44.389Z,18.90
2022-10-19T19:21:19.509Z,19.33
2022-10-19T19:23:49.457Z,17.57
2022-10-19T19:26:16.161Z,15.00
2022-10-19T19:28:44.335Z,19.93
2022-10-19T19:31:13.271Z,17.00
2022-10-19T19:33:40.188Z,20.30
2022-10-19T19:36:15.053Z,20.47
2022-10-19T19:38:43.850Z,19.30
2022-10-19T19:41:16.342Z,19.60
2022-10-19T19:43:43.872Z,18.90
2022-10-19T19:46:18.789Z,18.33
2022-10-19T19:48:47.458Z,15.43
2022-10-19T19:51:19.560Z,18.83
2022-10-19T19:53:47.277Z,16.73
2022-10-19T19:56:15.735Z,17.27
2022-10-19T19:58:43.034Z,18.10
2022-10-19T20:01:12.349Z,21.63
2022-10-19T20:03:40.555Z,21.53
2022-10-19T20:06:09.279Z,18.43
2022-10-19T20:08:38.870Z,23.17
2022-10-19T20:11:07.744Z,22.13
2022-10-19T20:13:34.770Z,21.33
2022-10-19T20:16:10.488Z,19.03
2022-10-19T20:18:37.268Z,18.37
2022-10-19T20:21:04.994Z,17.53
2022-10-19T20:23:31.674Z,27.93
2022-10-19T20:25:58.369Z,28.93
2022-10-19T20:28:25.642Z,25.10
2022-10-19T20:31:06.383Z,21.83
2022-10-19T20:33:34.238Z,25.00
2022-10-19T20:36:09.111Z,29.17
2022-10-19T20:38:37.008Z,27.37
2022-10-19T20:41:07.776Z,29.03
2022-10-19T20:43:35.957Z,28.33
2022-10-19T20:46:06.612Z,27.13
2022-10-19T20:48:33.310Z,24.13
2022-10-19T20:51:21.173Z,25.83
2022-10-19T20:53:50.549Z,22.97
2022-10-19T20:56:19.751Z,25.80
2022-10-19T20:58:46.431Z,22.77
2022-10-19T21:01:16.272Z,20.00
2022-10-19T21:03:47.894Z,21.25
2022-10-19T21:06:14.637Z,22.40
2022-10-19T21:08:42.146Z,25.40
2022-10-19T21:11:23.088Z,23.83
2022-10-19T21:13:53.780Z,24.30
2022-10-19T21:16:22.005Z,21.40
2022-10-19T21:18:49.506Z,21.63
2022-10-19T21:21:24.820Z,22.47
2022-10-19T21:23:55.031Z,18.23
2022-10-19T21:26:24.254Z,20.00
2022-10-19T21:28:51.131Z,21.95
2022-10-19T21:31:17.954Z,24.53
2022-10-19T21:33:44.668Z,24.93
2022-10-19T21:36:11.985Z,23.73
2022-10-19T21:38:38.822Z,24.00
2022-10-19T21:41:07.460Z,24.77
2022-10-19T21:43:34.555Z,26.07
2022-10-19T21:46:02.810Z,27.07
2022-10-19T21:48:29.780Z,29.13
2022-10-19T21:50:56.216Z,28.17
2022-10-19T21:53:23.286Z,30.43
2022-10-19T21:55:51.164Z,25.03
2022-10-19T21:58:17.764Z,27.23
2022-10-19T22:00:44.210Z,29.87
2022-10-19T22:03:11.491Z,29.60
2022-10-19T22:05:38.245Z,28.73
2022-10-19T22:08:05.074Z,29.57
2022-10-19T22:10:31.608Z,27.97
2022-10-19T22:12:58.259Z,30.47
2022-10-19T22:15:24.923Z,29.20
2022-10-19T22:17:51.592Z,31.23
2022-10-19T22:20:18.141Z,32.93
2022-10-19T22:22:44.596Z,30.57
2022-10-19T22:25:11.040Z,34.27
2022-10-19T22:27:37.664Z,36.40
2022-10-19T22:30:04.822Z,38.53
2022-10-19T22:32:31.319Z,35.33
2022-10-19T22:34:57.851Z,39.83
2022-10-19T22:37:24.458Z,37.10
2022-10-19T22:39:50.954Z,35.33
2022-10-19T22:42:17.401Z,33.23
2022-10-19T22:44:43.843Z,32.23
2022-10-19T22:47:10.425Z,30.47
2022-10-19T22:49:36.876Z,30.00
2022-10-19T22:52:03.479Z,28.40
2022-10-19T22:54:29.962Z,28.27
2022-10-19T22:56:56.905Z,27.83
2022-10-19T22:59:23.652Z,25.60
2022-10-19T23:01:50.191Z,25.30
2022-10-19T23:04:19.800Z,27.17
2022-10-19T23:06:46.246Z,23.00
2022-10-19T23:09:12.711Z,24.97
2022-10-19T23:11:39.176Z,24.27
2022-10-19T23:14:06.449Z,22.27
2022-10-19T23:16:33.030Z,21.63
2022-10-19T23:18:59.465Z,25.57
2022-10-19T23:21:25.989Z,25.27
2022-10-19T23:23:52.475Z,24.83
2022-10-19T23:26:20.125Z,23.27
2022-10-19T23:28:48.573Z,27.77
2022-10-19T23:31:17.541Z,26.40
2022-10-19T23:33:44.368Z,23.57
2022-10-19T23:36:22.509Z,24.47
2022-10-19T23:38:50.173Z,25.63
2022-10-19T23:41:17.521Z,27.97
2022-10-19T23:43:44.052Z,29.83
2022-10-19T23:46:10.666Z,27.63
2022-10-19T23:48:37.516Z,26.00
2022-10-19T23:51:13.017Z,29.30
2022-10-19T23:53:41.672Z,26.60
2022-10-19T23:56:12.928Z,28.90
2022-10-19T23:58:39.426Z,30.50
